logo dgac
Miércoles 24 de Julio del 2024
Buscar por aerodromo o helipuerto
Ingrese nombre de aeródromo, localidad o designador OACI:
TAF: TAF SCRG 231302Z 2314/2324 02004KT 0500 FG BKN002 OVC005 TX11/ 2319Z TN03/2312Z BECMG 2316/2318 VRB02KT 4000 BR SCT008 BKN012 BECMG 2319/2321 18007KT 6000 SCT020 BKN050
TAF del 23/07/2024 a las 13:02 UTC
Para mayor información visite www.meteochile.gob.cl
Período de validez: desde el 23 a las 14:00 UTC hasta el 23 a las 24:00 UTC
Viento: dirección 020 grados, velocidad 4 nudos
Visibilidad: 500 metros
Niebla
Nubes: Nublado a 200 pies sobre el nivel del aeródromo
Nubes: Cubierto a 500 pies sobre el nivel del aeródromo
Nan: TX11/
Nan: 2319Z
Temperatura mínima: 3ºC el 23 a las 12:00 UTC
Se espera un cambio entre las 16:00 UTC del 23 y las 18:00 UTC del 23, :
Viento: dirección variable, velocidad 2 nudos
Visibilidad: 4000 metros
Neblina
Nubes: Nubosidad parcial a 800 pies sobre el nivel del aeródromo
Nubes: Nublado a 1200 pies sobre el nivel del aeródromo
Se espera un cambio entre las 19:00 UTC del 23 y las 21:00 UTC del 23, :
Viento: dirección 180 grados, velocidad 7 nudos
Visibilidad: 6000 metros
Nubes: Nubosidad parcial a 2000 pies sobre el nivel del aeródromo
Nubes: Nublado a 5000 pies sobre el nivel del aeródromo